Triadelphia, West Virginia
Current Conditions -  °F | °C
As of 7:53 AM on Monday 22 Dec 2014 (Local Time) from KHLG Reporting Station
Overcast Overcast  
Wind Chill: 23°   Ceiling: 4400
Heat Index: 30°   Visibility: 7mi
Dew Point: 24°   Wind: 7mph
Humidity: 79%   Direction: 90°E
Pressure: 30.1"   Gusts: NA
Location:  40.05°N, 80.63°W
Report Text: KHLG 221253Z 09006KT 7SM OVC044 M01/M04 A3010 RMK AO2 SLP209 T10111044
Loading
Personal Weather Stations






























Interactive Weather Map New forecast layout! Learn more

10-Day Weather Forecast

Advertisements
Track Severe Weather on mobile